createdAt,value
2018-03-17T00:01:11.107Z,101504.98
2018-03-17T00:03:39.580Z,101503.36
2018-03-17T00:06:07.976Z,101507.89
2018-03-17T00:08:36.568Z,101506.83
2018-03-17T00:11:04.914Z,101509.89
2018-03-17T00:13:33.192Z,101494.81
2018-03-17T00:16:01.468Z,101512.80
2018-03-17T00:18:29.792Z,101506.22
2018-03-17T00:20:58.548Z,101514.66
2018-03-17T00:23:27.677Z,101481.27
2018-03-17T00:25:56.438Z,101508.56
2018-03-17T00:28:25.557Z,101519.50
2018-03-17T00:30:53.820Z,101502.39
2018-03-17T00:33:22.136Z,101516.09
2018-03-17T00:35:50.832Z,101506.80
2018-03-17T00:38:19.865Z,101521.25
2018-03-17T00:40:48.968Z,101522.38
2018-03-17T00:43:17.246Z,101534.55
2018-03-17T00:45:46.333Z,101535.28
2018-03-17T00:48:16.235Z,101519.67
2018-03-17T00:50:44.517Z,101520.83
2018-03-17T00:53:12.786Z,101513.92
2018-03-17T00:55:41.712Z,101520.83
2018-03-17T00:58:10.073Z,101512.61
2018-03-17T01:00:38.364Z,101502.41
2018-03-17T01:03:06.680Z,101508.09
2018-03-17T01:05:35.568Z,101500.91
2018-03-17T01:08:03.848Z,101497.67
2018-03-17T01:10:32.167Z,101507.17
2018-03-17T01:13:00.424Z,101492.48
2018-03-17T01:15:29.456Z,101505.00
2018-03-17T01:17:57.873Z,101492.05
2018-03-17T01:20:26.530Z,101497.08
2018-03-17T01:22:55.122Z,101485.17
2018-03-17T01:25:23.397Z,101497.67
2018-03-17T01:27:51.696Z,101496.75
2018-03-17T01:30:20.041Z,101488.63
2018-03-17T01:32:48.316Z,101488.11
2018-03-17T01:35:16.600Z,101484.29
2018-03-17T01:37:44.901Z,101485.51
2018-03-17T01:40:13.200Z,101488.97
2018-03-17T01:42:41.480Z,101496.50
2018-03-17T01:45:09.788Z,101485.17
2018-03-17T01:47:38.250Z,101486.45
2018-03-17T01:50:06.525Z,101488.75
2018-03-17T01:52:35.050Z,101499.19
2018-03-17T01:55:03.328Z,101485.02
2018-03-17T01:57:31.592Z,101491.98
2018-03-17T01:59:59.879Z,101483.80
2018-03-17T02:02:28.184Z,101482.85
2018-03-17T02:04:56.468Z,101481.05
2018-03-17T02:07:24.815Z,101479.34
2018-03-17T02:09:53.655Z,101478.59
2018-03-17T02:12:22.004Z,101470.66
2018-03-17T02:14:50.300Z,101470.08
2018-03-17T02:17:19.064Z,101465.89
2018-03-17T02:19:47.780Z,101464.61
2018-03-17T02:22:16.854Z,101470.41
2018-03-17T02:24:45.119Z,101459.64
2018-03-17T02:27:14.657Z,101457.99
2018-03-17T02:29:42.936Z,101461.16
2018-03-17T02:32:11.920Z,101450.73
2018-03-17T02:34:40.392Z,101453.20
2018-03-17T02:37:08.680Z,101454.33
2018-03-17T02:39:37.766Z,101453.36
2018-03-17T02:42:06.057Z,101450.52
2018-03-17T02:44:34.327Z,101449.50
2018-03-17T02:47:02.713Z,101444.07
2018-03-17T02:49:31.115Z,101447.43
2018-03-17T02:51:59.393Z,101436.80
2018-03-17T02:54:27.975Z,101444.85
2018-03-17T02:56:56.244Z,101437.80
2018-03-17T02:59:24.517Z,101431.48
2018-03-17T03:01:53.473Z,101431.54
2018-03-17T03:04:21.755Z,101429.12
2018-03-17T03:06:51.408Z,101429.05
2018-03-17T03:09:20.859Z,101427.71
2018-03-17T03:11:49.149Z,101431.41
2018-03-17T03:14:18.358Z,101431.25
2018-03-17T03:16:46.666Z,101431.47
2018-03-17T03:19:14.968Z,101423.42
2018-03-17T03:21:44.021Z,101425.67
2018-03-17T03:26:40.264Z,101436.36
2018-03-17T03:29:08.546Z,101441.83
2018-03-17T03:31:37.655Z,101449.66
2018-03-17T03:34:06.923Z,101461.59
2018-03-17T03:36:35.187Z,101468.23
2018-03-17T03:39:03.513Z,101476.99
2018-03-17T03:41:31.801Z,101475.55
2018-03-17T03:44:00.680Z,101478.77
2018-03-17T03:46:29.065Z,101487.25
2018-03-17T03:48:57.884Z,101480.95
2018-03-17T03:51:26.968Z,101488.06
2018-03-17T03:53:56.018Z,101468.98
2018-03-17T03:56:25.377Z,101482.97
2018-03-17T03:58:55.472Z,101478.42
2018-03-17T04:01:23.839Z,101471.16
2018-03-17T04:03:52.423Z,101477.08
2018-03-17T04:06:21.855Z,101491.37
2018-03-17T04:08:50.900Z,101481.88
2018-03-17T04:11:20.012Z,101490.56
2018-03-17T04:13:49.089Z,101488.22
2018-03-17T04:16:17.361Z,101495.31
2018-03-17T04:18:46.369Z,101500.89
2018-03-17T04:21:14.876Z,101491.43
2018-03-17T04:23:43.238Z,101491.34
2018-03-17T04:26:11.513Z,101484.98
2018-03-17T04:28:39.788Z,101482.14
2018-03-17T04:31:08.372Z,101480.23
2018-03-17T04:33:38.166Z,101486.38
2018-03-17T04:36:07.197Z,101489.28
2018-03-17T04:38:35.498Z,101492.61
2018-03-17T04:41:04.900Z,101491.92
2018-03-17T04:43:33.504Z,101506.31
2018-03-17T04:46:01.824Z,101502.17
2018-03-17T04:48:31.656Z,101500.95
2018-03-17T04:51:00.872Z,101504.92
2018-03-17T04:53:29.716Z,101499.55
2018-03-17T04:55:57.998Z,101499.23
2018-03-17T04:58:26.492Z,101504.94
2018-03-17T05:00:54.819Z,101513.37
2018-03-17T05:03:23.849Z,101513.27
2018-03-17T05:05:52.177Z,101514.69
2018-03-17T05:08:21.060Z,101520.31
2018-03-17T05:10:49.347Z,101525.75
2018-03-17T05:13:17.949Z,101521.47
2018-03-17T05:15:46.227Z,101523.02
2018-03-17T05:18:14.560Z,101530.30
2018-03-17T05:20:44.084Z,101524.36
2018-03-17T05:23:12.351Z,101520.34
2018-03-17T05:25:40.729Z,101521.80
2018-03-17T05:28:09.378Z,101525.95
2018-03-17T05:30:39.039Z,101524.83
2018-03-17T05:33:08.069Z,101526.28
2018-03-17T05:35:37.122Z,101525.39
2018-03-17T05:38:06.328Z,101528.45
2018-03-17T05:40:34.984Z,101529.66
2018-03-17T05:43:03.292Z,101527.64
2018-03-17T05:45:33.236Z,101513.72
2018-03-17T05:48:01.544Z,101523.30
2018-03-17T05:50:29.818Z,101523.64
2018-03-17T05:52:58.113Z,101530.19
2018-03-17T05:55:26.424Z,101533.35
2018-03-17T05:57:54.703Z,101514.42
2018-03-17T06:00:22.964Z,101526.23
2018-03-17T06:02:51.669Z,101534.23
2018-03-17T06:05:20.448Z,101523.53
2018-03-17T06:07:48.716Z,101534.39
2018-03-17T06:10:17.028Z,101530.58
2018-03-17T06:12:45.328Z,101530.12
2018-03-17T06:15:14.403Z,101537.47
2018-03-17T06:17:43.004Z,101515.52
2018-03-17T06:20:12.150Z,101538.72
2018-03-17T06:22:40.431Z,101541.95
2018-03-17T06:25:08.859Z,101528.72
2018-03-17T06:27:37.545Z,101521.43
2018-03-17T06:30:05.823Z,101532.30
2018-03-17T06:32:36.262Z,101516.77
2018-03-17T06:35:04.528Z,101547.72
2018-03-17T06:37:32.812Z,101550.16
2018-03-17T06:40:01.964Z,101553.77
2018-03-17T06:42:30.256Z,101556.50
2018-03-17T06:44:59.289Z,101559.84
2018-03-17T06:47:28.382Z,101556.13
2018-03-17T06:49:57.451Z,101570.59
2018-03-17T06:52:26.246Z,101548.70
2018-03-17T06:54:55.289Z,101558.67
2018-03-17T06:57:24.546Z,101557.38
2018-03-17T06:59:52.945Z,101545.70
2018-03-17T07:02:22.074Z,101544.84
2018-03-17T07:04:51.049Z,101580.96
2018-03-17T07:07:19.668Z,101567.66
2018-03-17T07:09:48.245Z,101574.85
2018-03-17T07:12:17.479Z,101587.23
2018-03-17T07:14:46.371Z,101575.45
2018-03-17T07:17:14.808Z,101573.36
2018-03-17T07:19:43.188Z,101585.03
2018-03-17T07:22:11.475Z,101581.15
2018-03-17T07:24:41.080Z,101581.90
2018-03-17T07:27:09.555Z,101582.19
2018-03-17T07:29:37.840Z,101578.95
2018-03-17T07:32:06.157Z,101589.46
2018-03-17T07:34:34.859Z,101576.02
2018-03-17T07:37:03.891Z,101577.78
2018-03-17T07:39:34.430Z,101557.17
2018-03-17T07:42:02.870Z,101566.49
2018-03-17T07:44:31.699Z,101572.46
2018-03-17T07:46:59.999Z,101562.84
2018-03-17T07:49:29.764Z,101556.25
2018-03-17T07:51:59.810Z,101555.83
2018-03-17T07:54:28.321Z,101554.19
2018-03-17T07:56:57.143Z,101554.24
2018-03-17T07:59:27.753Z,101540.53
2018-03-17T08:01:56.040Z,101555.09
2018-03-17T08:04:24.381Z,101557.70
2018-03-17T08:06:52.802Z,101560.00
2018-03-17T08:09:21.909Z,101559.70
2018-03-17T08:11:50.226Z,101563.15
2018-03-17T08:14:18.569Z,101550.80
2018-03-17T08:16:48.555Z,101556.97
2018-03-17T08:19:16.883Z,101542.16
2018-03-17T08:21:45.734Z,101552.72
2018-03-17T08:24:14.177Z,101552.45
2018-03-17T08:26:42.447Z,101553.59
2018-03-17T08:29:10.741Z,101535.22
2018-03-17T08:31:39.493Z,101539.34
2018-03-17T08:34:08.626Z,101531.22
2018-03-17T08:36:37.721Z,101533.41
2018-03-17T08:39:06.119Z,101533.59
2018-03-17T08:41:34.624Z,101506.55
2018-03-17T08:44:02.893Z,101519.53
2018-03-17T08:46:31.448Z,101521.96
2018-03-17T08:48:59.928Z,101503.88
2018-03-17T08:51:28.229Z,101537.75
2018-03-17T08:53:57.715Z,101517.39
2018-03-17T08:56:26.000Z,101525.23
2018-03-17T08:58:55.101Z,101504.25
2018-03-17T09:01:23.402Z,101513.25
2018-03-17T09:03:51.966Z,101522.94
2018-03-17T09:06:20.941Z,101511.72
2018-03-17T09:08:49.226Z,101506.50
2018-03-17T09:11:18.862Z,101522.84
2018-03-17T09:13:49.105Z,101517.02
2018-03-17T09:16:17.903Z,101523.67
2018-03-17T09:18:47.011Z,101535.19
2018-03-17T09:21:16.128Z,101502.95
2018-03-17T09:23:44.401Z,101517.01
2018-03-17T09:26:12.692Z,101505.73
2018-03-17T09:28:41.897Z,101506.44
2018-03-17T09:31:10.441Z,101504.31
2018-03-17T09:33:40.127Z,101502.66
2018-03-17T09:36:09.276Z,101493.55
2018-03-17T09:38:38.774Z,101502.83
2018-03-17T09:41:07.912Z,101497.84
2018-03-17T09:43:36.231Z,101499.30
2018-03-17T09:46:05.277Z,101506.52
2018-03-17T09:48:33.880Z,101507.90
2018-03-17T09:51:02.234Z,101515.00
2018-03-17T09:53:30.549Z,101511.02
2018-03-17T09:55:58.855Z,101517.41
2018-03-17T09:58:27.917Z,101501.17
2018-03-17T10:00:57.723Z,101500.28
2018-03-17T10:03:26.807Z,101511.94
2018-03-17T10:05:55.076Z,101511.13
2018-03-17T10:08:23.474Z,101493.20
2018-03-17T10:10:51.790Z,101486.90
2018-03-17T10:13:20.837Z,101496.00
2018-03-17T10:15:49.111Z,101501.00
2018-03-17T10:18:17.426Z,101487.59
2018-03-17T10:20:46.213Z,101482.07
2018-03-17T10:23:15.119Z,101496.14
2018-03-17T10:25:44.193Z,101461.67
2018-03-17T10:28:12.611Z,101486.66
2018-03-17T10:30:41.640Z,101484.68
2018-03-17T10:33:10.029Z,101482.80
2018-03-17T10:35:39.448Z,101490.67
2018-03-17T10:38:07.739Z,101484.72
2018-03-17T10:40:36.761Z,101492.47
2018-03-17T10:43:05.863Z,101476.81
2018-03-17T10:45:34.147Z,101491.97
2018-03-17T10:48:03.185Z,101480.63
2018-03-17T10:50:31.480Z,101479.80
2018-03-17T10:53:00.589Z,101492.95
2018-03-17T10:55:30.428Z,101468.08
2018-03-17T10:57:58.741Z,101486.62
2018-03-17T11:00:29.499Z,101496.03
2018-03-17T11:02:58.219Z,101485.81
2018-03-17T11:05:27.248Z,101477.69
2018-03-17T11:07:55.533Z,101486.08
2018-03-17T11:10:24.341Z,101493.20
2018-03-17T11:12:54.561Z,101491.45
2018-03-17T11:15:22.841Z,101475.53
2018-03-17T11:17:51.216Z,101476.31
2018-03-17T11:20:19.541Z,101473.61
2018-03-17T11:22:49.152Z,101486.87
2018-03-17T11:25:18.209Z,101488.17
2018-03-17T11:27:47.333Z,101451.58
2018-03-17T11:30:16.767Z,101482.01
2018-03-17T11:32:45.574Z,101476.94
2018-03-17T11:35:16.660Z,101463.63
2018-03-17T11:37:45.698Z,101476.61
2018-03-17T11:40:13.971Z,101452.91
2018-03-17T11:42:43.481Z,101465.22
2018-03-17T11:45:12.494Z,101473.69
2018-03-17T11:47:40.832Z,101472.34
2018-03-17T11:50:09.953Z,101461.55
2018-03-17T11:52:38.832Z,101429.16
2018-03-17T11:55:07.115Z,101462.16
2018-03-17T11:57:37.549Z,101458.57
2018-03-17T12:00:06.697Z,101448.00
2018-03-17T12:02:36.513Z,101445.55
2018-03-17T12:05:04.738Z,101467.73
2018-03-17T12:07:33.407Z,101454.30
2018-03-17T12:10:02.650Z,101470.08
2018-03-17T12:12:31.545Z,101453.64
2018-03-17T12:14:59.829Z,101426.63
2018-03-17T12:17:28.189Z,101438.85
2018-03-17T12:19:56.465Z,101445.45
2018-03-17T12:22:24.752Z,101447.67
2018-03-17T12:24:53.220Z,101424.40
2018-03-17T12:27:21.500Z,101446.32
2018-03-17T12:29:49.905Z,101430.56
2018-03-17T12:32:18.924Z,101438.64
2018-03-17T12:34:47.203Z,101429.00
2018-03-17T12:37:16.255Z,101418.70
2018-03-17T12:39:44.533Z,101417.31
2018-03-17T12:42:12.820Z,101419.37
2018-03-17T12:44:41.116Z,101398.84
2018-03-17T12:47:09.384Z,101427.84
2018-03-17T12:49:38.596Z,101429.09
2018-03-17T12:52:06.969Z,101442.45
2018-03-17T12:54:35.326Z,101424.84
2018-03-17T12:57:03.641Z,101438.70
2018-03-17T12:59:32.333Z,101429.77
2018-03-17T13:02:00.689Z,101413.91
2018-03-17T13:04:29.004Z,101428.70
2018-03-17T13:06:58.569Z,101435.70
2018-03-17T13:09:26.832Z,101441.89
2018-03-17T13:11:55.105Z,101417.01
2018-03-17T13:14:23.477Z,101423.87
2018-03-17T13:16:51.760Z,101433.59
2018-03-17T13:19:31.706Z,101408.42
2018-03-17T13:22:01.453Z,101421.02
2018-03-17T13:24:30.444Z,101396.73
2018-03-17T13:27:16.376Z,101397.73
2018-03-17T13:29:45.437Z,101414.11
2018-03-17T13:32:31.572Z,101388.17
2018-03-17T13:35:00.739Z,101404.03
2018-03-17T13:37:38.511Z,101427.92
2018-03-17T13:40:24.656Z,101404.66
2018-03-17T13:42:53.700Z,101395.27
2018-03-17T13:45:22.044Z,101404.91
2018-03-17T13:47:50.675Z,101407.83
2018-03-17T13:50:18.960Z,101405.83
2018-03-17T13:52:47.948Z,101402.89
2018-03-17T13:55:16.326Z,101387.69
2018-03-17T13:57:44.600Z,101419.16
2018-03-17T14:00:12.888Z,101399.14
2018-03-17T14:02:41.293Z,101385.67
2018-03-17T14:05:09.568Z,101418.55
2018-03-17T14:07:37.868Z,101420.37
2018-03-17T14:10:06.916Z,101421.00
2018-03-17T14:12:35.410Z,101413.23
2018-03-17T14:15:03.778Z,101399.91
2018-03-17T14:17:32.036Z,101407.11
2018-03-17T14:20:00.308Z,101409.80
2018-03-17T14:22:29.117Z,101418.01
2018-03-17T14:24:57.409Z,101403.91
2018-03-17T14:27:26.223Z,101413.60
2018-03-17T14:29:55.385Z,101403.73
2018-03-17T14:32:23.663Z,101426.23
2018-03-17T14:34:51.977Z,101415.36
2018-03-17T14:37:21.017Z,101401.30
2018-03-17T14:39:50.493Z,101397.83
2018-03-17T14:42:19.543Z,101403.51
2018-03-17T14:44:47.816Z,101405.45
2018-03-17T14:47:16.155Z,101409.05
2018-03-17T14:49:44.432Z,101395.48
2018-03-17T14:52:12.708Z,101419.73
2018-03-17T14:54:41.017Z,101399.72
2018-03-17T14:57:09.305Z,101406.96
2018-03-17T14:59:37.592Z,101412.02
2018-03-17T15:02:05.920Z,101414.48
2018-03-17T15:04:34.968Z,101408.27
2018-03-17T15:07:03.513Z,101381.72
2018-03-17T15:09:31.968Z,101407.18
2018-03-17T15:12:00.992Z,101418.30
2018-03-17T15:14:29.486Z,101407.72
2018-03-17T15:16:57.740Z,101373.63
2018-03-17T15:19:26.048Z,101407.56
2018-03-17T15:21:54.335Z,101383.18
2018-03-17T15:24:23.003Z,101386.27
2018-03-17T15:26:51.341Z,101361.41
2018-03-17T15:29:19.674Z,101408.30
2018-03-17T15:31:47.971Z,101398.41
2018-03-17T15:34:16.562Z,101397.69
2018-03-17T15:36:44.840Z,101407.23
2018-03-17T15:39:13.771Z,101403.32
2018-03-17T15:41:42.805Z,101424.62
2018-03-17T15:44:11.216Z,101427.30
2018-03-17T15:46:39.496Z,101432.47
2018-03-17T15:49:07.781Z,101413.34
2018-03-17T15:51:36.118Z,101438.66
2018-03-17T15:54:05.097Z,101430.76
2018-03-17T15:56:34.570Z,101417.58
2018-03-17T15:59:03.633Z,101430.01
2018-03-17T16:01:31.944Z,101431.45
2018-03-17T16:04:01.000Z,101439.88
2018-03-17T16:06:29.352Z,101441.05
2018-03-17T16:08:57.632Z,101437.87
2018-03-17T16:11:26.820Z,101427.27
2018-03-17T16:13:55.099Z,101443.20
2018-03-17T16:16:23.501Z,101440.25
2018-03-17T16:18:51.889Z,101433.62
2018-03-17T16:21:20.633Z,101450.80
2018-03-17T16:23:50.076Z,101447.21
2018-03-17T16:26:18.365Z,101458.00
2018-03-17T16:28:46.649Z,101444.45
2018-03-17T16:31:15.019Z,101437.34
2018-03-17T16:33:43.831Z,101450.48
2018-03-17T16:36:12.476Z,101464.98
2018-03-17T16:38:40.755Z,101460.50
2018-03-17T16:41:10.392Z,101465.64
2018-03-17T16:43:39.644Z,101470.83
2018-03-17T16:46:07.909Z,101490.81
2018-03-17T16:48:36.953Z,101488.86
2018-03-17T16:51:05.324Z,101498.56
2018-03-17T16:53:33.591Z,101497.68
2018-03-17T16:56:01.893Z,101488.66
2018-03-17T16:58:31.075Z,101480.59
2018-03-17T17:00:59.415Z,101502.06
2018-03-17T17:03:28.530Z,101504.66
2018-03-17T17:05:57.555Z,101494.64
2018-03-17T17:08:25.841Z,101505.64
2018-03-17T17:10:54.661Z,101499.88
2018-03-17T17:13:23.758Z,101499.28
2018-03-17T17:15:52.816Z,101502.33
2018-03-17T17:18:21.133Z,101496.38
2018-03-17T17:20:49.422Z,101512.30
2018-03-17T17:23:18.756Z,101532.72
2018-03-17T17:25:47.153Z,101517.48
2018-03-17T17:28:15.580Z,101522.36
2018-03-17T17:30:44.628Z,101515.63
2018-03-17T17:33:12.942Z,101522.39
2018-03-17T17:35:41.235Z,101517.80
2018-03-17T17:38:10.290Z,101534.86
2018-03-17T17:40:38.664Z,101532.16
2018-03-17T17:43:06.948Z,101541.95
2018-03-17T17:45:35.242Z,101538.19
2018-03-17T17:48:04.286Z,101544.09
2018-03-17T17:50:32.961Z,101541.11
2018-03-17T17:53:01.248Z,101539.83
2018-03-17T17:55:29.558Z,101554.52
2018-03-17T17:57:57.846Z,101552.22
2018-03-17T18:00:26.252Z,101553.94
2018-03-17T18:02:54.557Z,101556.05
2018-03-17T18:05:22.849Z,101559.72
2018-03-17T18:07:51.119Z,101561.48
2018-03-17T18:10:19.520Z,101564.61
2018-03-17T18:12:47.800Z,101569.78
2018-03-17T18:15:16.304Z,101565.25
2018-03-17T18:17:45.046Z,101586.37
2018-03-17T18:20:13.332Z,101581.15
2018-03-17T18:22:41.633Z,101593.13
2018-03-17T18:31:56.840Z,101583.16
2018-03-17T18:34:25.142Z,101553.89
2018-03-17T18:36:53.516Z,101579.62
2018-03-17T18:39:21.815Z,101591.94
2018-03-17T18:41:50.170Z,101597.41
2018-03-17T18:44:18.437Z,101577.54
2018-03-17T18:46:47.111Z,101589.27
2018-03-17T18:49:15.408Z,101590.64
2018-03-17T18:51:43.716Z,101574.45
2018-03-17T18:54:12.004Z,101587.89
2018-03-17T18:56:40.348Z,101594.16
2018-03-17T18:59:09.344Z,101588.17
2018-03-17T19:01:37.620Z,101601.25
2018-03-17T19:04:06.041Z,101593.15
2018-03-17T19:06:35.094Z,101603.36
2018-03-17T19:09:03.384Z,101598.09
2018-03-17T19:11:31.768Z,101611.69
2018-03-17T19:14:00.074Z,101602.98
2018-03-17T19:16:28.377Z,101576.88
2018-03-17T19:18:56.724Z,101593.64
2018-03-17T19:21:25.012Z,101605.73
2018-03-17T19:23:54.076Z,101605.78
2018-03-17T19:26:22.367Z,101604.98
2018-03-17T19:28:50.936Z,101609.97
2018-03-17T19:31:20.324Z,101619.59
2018-03-17T19:33:48.645Z,101603.17
2018-03-17T19:36:16.940Z,101601.17
2018-03-17T19:38:46.021Z,101609.96
2018-03-17T19:41:14.307Z,101621.13
2018-03-17T19:43:43.381Z,101614.53
2018-03-17T19:46:12.304Z,101612.73
2018-03-17T19:48:41.348Z,101611.92
2018-03-17T19:51:09.713Z,101629.78
2018-03-17T19:53:38.009Z,101636.45
2018-03-17T19:56:06.392Z,101621.91
2018-03-17T19:58:34.760Z,101621.81
2018-03-17T20:01:03.049Z,101614.52
2018-03-17T20:03:32.266Z,101632.64
2018-03-17T20:06:00.565Z,101619.42
2018-03-17T20:08:29.632Z,101626.36
2018-03-17T20:10:57.926Z,101630.34
2018-03-17T20:13:26.264Z,101629.45
2018-03-17T20:15:55.119Z,101631.24
2018-03-17T20:18:24.152Z,101645.37
2018-03-17T20:20:52.580Z,101627.31
2018-03-17T20:23:22.660Z,101642.47
2018-03-17T20:25:51.082Z,101639.66
2018-03-17T20:28:20.144Z,101640.83
2018-03-17T20:30:49.227Z,101640.81
2018-03-17T20:33:17.931Z,101627.22
2018-03-17T20:35:46.220Z,101643.83
2018-03-17T20:38:15.242Z,101637.95
2018-03-17T20:40:44.298Z,101642.44
2018-03-17T20:43:12.622Z,101644.91
2018-03-17T20:45:41.676Z,101656.41
2018-03-17T20:48:10.070Z,101645.75
2018-03-17T20:50:38.518Z,101641.17
2018-03-17T20:53:06.784Z,101666.16
2018-03-17T20:55:35.730Z,101651.45
2018-03-17T20:58:04.080Z,101651.66
2018-03-17T21:00:32.382Z,101643.89
2018-03-17T21:03:00.989Z,101647.79
2018-03-17T21:05:30.121Z,101641.30
2018-03-17T21:07:58.520Z,101651.22
2018-03-17T21:10:27.445Z,101653.67
2018-03-17T21:12:55.848Z,101654.13
2018-03-17T21:15:24.900Z,101658.84
2018-03-17T21:17:53.596Z,101664.09
2018-03-17T21:20:22.294Z,101668.58
2018-03-17T21:22:50.601Z,101661.92
2018-03-17T21:25:19.641Z,101666.41
2018-03-17T21:27:48.037Z,101660.38
2018-03-17T21:30:16.968Z,101657.73
2018-03-17T21:32:46.510Z,101660.44
2018-03-17T21:35:14.881Z,101661.36
2018-03-17T21:37:43.309Z,101672.55
2018-03-17T21:40:11.617Z,101673.61
2018-03-17T21:42:41.182Z,101656.34
2018-03-17T21:45:09.485Z,101659.73
2018-03-17T21:47:40.105Z,101668.08
2018-03-17T21:50:09.269Z,101664.51
2018-03-17T21:52:37.544Z,101655.30
2018-03-17T21:55:05.865Z,101665.70
2018-03-17T21:57:35.884Z,101662.23
2018-03-17T22:00:04.940Z,101659.52
2018-03-17T22:02:33.226Z,101666.04
2018-03-17T22:05:01.797Z,101673.42
2018-03-17T22:07:30.102Z,101669.45
2018-03-17T22:09:58.628Z,101668.12
2018-03-17T22:12:26.911Z,101669.23
2018-03-17T22:14:55.209Z,101643.16
2018-03-17T22:17:23.490Z,101671.09
2018-03-17T22:19:51.799Z,101664.63
2018-03-17T22:22:20.084Z,101658.80
2018-03-17T22:24:48.559Z,101665.02
2018-03-17T22:27:16.938Z,101677.01
2018-03-17T22:29:45.777Z,101668.29
2018-03-17T22:32:14.067Z,101683.01
2018-03-17T22:34:42.373Z,101672.12
2018-03-17T22:37:11.364Z,101665.72
2018-03-17T22:39:39.849Z,101677.59
2018-03-17T22:42:08.204Z,101672.48
2018-03-17T22:44:36.590Z,101681.67
2018-03-17T22:47:04.863Z,101677.81
2018-03-17T22:49:33.820Z,101681.44
2018-03-17T22:52:03.649Z,101671.73
2018-03-17T22:54:31.946Z,101674.09
2018-03-17T22:57:00.264Z,101674.19
2018-03-17T22:59:28.845Z,101684.84
2018-03-17T23:01:57.108Z,101679.59
2018-03-17T23:04:25.710Z,101687.45
2018-03-17T23:06:54.888Z,101676.56
2018-03-17T23:09:23.256Z,101692.83
2018-03-17T23:11:51.633Z,101672.14
2018-03-17T23:14:19.913Z,101677.48
2018-03-17T23:16:48.234Z,101694.02
2018-03-17T23:19:16.918Z,101683.92
2018-03-17T23:21:45.598Z,101694.55
2018-03-17T23:24:13.968Z,101695.80
2018-03-17T23:26:42.256Z,101702.56
2018-03-17T23:29:10.599Z,101708.59
2018-03-17T23:31:39.237Z,101709.55
2018-03-17T23:34:08.536Z,101711.11
2018-03-17T23:36:37.583Z,101720.61
2018-03-17T23:39:06.185Z,101709.05
2018-03-17T23:41:34.459Z,101706.61
2018-03-17T23:44:02.956Z,101726.89
2018-03-17T23:46:31.260Z,101713.77
2018-03-17T23:48:59.532Z,101711.29
2018-03-17T23:51:28.597Z,101715.98
2018-03-17T23:53:56.880Z,101715.89
2018-03-17T23:56:25.237Z,101715.40
2018-03-17T23:58:53.504Z,101712.41
